PH-0113 weather

CLOSED Mabalacat East Airfield (Kamikaze East)
Mabalacat, Pampanga Province, Philippines

Public forecast

Using degrees Celsius for public forecast. Weather courtesy of forecast.io.

Closest aviation weather report (METAR) to Mabalacat East Airfield (Kamikaze East)

Closest report is Diosdado Macapagal International Airport, 3.4 nm (6.3 km) SSW. Retrieved 2019/11/18 19:00 UTC (23 minutes ago):

RPLC 181900Z 32002KT 8000 SCT020 BKN100 26/23 Q1009 NOSIG RMK A2980

Closest aviation forecast (TAF) to Mabalacat East Airfield (Kamikaze East)

Closest forecast is Diosdado Macapagal International Airport, 3.4 nm (6.3 km) SSW. Retrieved 2019/11/18 18:03 UTC (1 hour ago):

TAF RPLC 181700Z 1818/1924 34006KT 9000 SCT020 BKN300 TX33/1906Z TN25/1822Z TEMPO 1818/1824 32006KT 7000 -SHRA SCT020 BKN100